createdAt,value
2023-01-19T00:00:57.748Z,25.90
2023-01-19T00:03:24.362Z,28.80
2023-01-19T00:05:51.502Z,35.90
2023-01-19T00:08:18.895Z,33.00
2023-01-19T00:10:46.928Z,34.10
2023-01-19T00:13:14.706Z,33.50
2023-01-19T00:15:41.342Z,28.30
2023-01-19T00:18:09.829Z,27.40
2023-01-19T00:20:37.734Z,31.20
2023-01-19T00:23:04.982Z,31.20
2023-01-19T00:25:31.824Z,30.10
2023-01-19T00:28:00.636Z,27.90
2023-01-19T00:30:28.768Z,28.70
2023-01-19T00:32:55.843Z,26.90
2023-01-19T00:35:22.487Z,26.40
2023-01-19T00:37:49.049Z,28.70
2023-01-19T00:40:15.768Z,26.20
2023-01-19T00:42:44.589Z,25.50
2023-01-19T00:45:12.793Z,28.50
2023-01-19T00:47:39.890Z,22.90
2023-01-19T00:50:07.405Z,23.30
2023-01-19T00:52:34.157Z,25.20
2023-01-19T00:55:00.720Z,24.00
2023-01-19T00:57:28.876Z,23.00
2023-01-19T00:59:55.509Z,26.00
2023-01-19T01:02:22.288Z,25.70
2023-01-19T01:04:54.775Z,25.00
2023-01-19T01:07:22.252Z,22.20
2023-01-19T01:09:48.839Z,24.70
2023-01-19T01:12:15.439Z,31.70
2023-01-19T01:14:42.039Z,27.70
2023-01-19T01:17:11.688Z,25.70
2023-01-19T01:19:38.840Z,24.90
2023-01-19T01:22:05.555Z,22.70
2023-01-19T01:24:33.011Z,25.70
2023-01-19T01:26:59.577Z,24.30
2023-01-19T01:29:26.599Z,24.00
2023-01-19T01:31:53.580Z,21.70
2023-01-19T01:34:20.264Z,23.80
2023-01-19T01:36:46.852Z,21.30
2023-01-19T01:39:13.417Z,23.40
2023-01-19T01:41:40.037Z,20.40
2023-01-19T01:44:26.609Z,24.50
2023-01-19T01:46:53.501Z,24.30
2023-01-19T01:49:20.154Z,19.60
2023-01-19T01:51:48.416Z,21.60
2023-01-19T01:54:21.028Z,22.70
2023-01-19T01:56:48.989Z,21.90
2023-01-19T01:59:26.158Z,22.20
2023-01-19T02:02:13.073Z,21.00
2023-01-19T02:04:42.173Z,29.90
2023-01-19T02:07:28.552Z,30.00
2023-01-19T02:10:14.030Z,23.50
2023-01-19T02:12:59.879Z,22.50
2023-01-19T02:15:26.707Z,22.80
2023-01-19T02:17:53.336Z,24.40
2023-01-19T02:20:21.759Z,25.30
2023-01-19T02:22:50.231Z,25.70
2023-01-19T02:25:18.272Z,25.80
2023-01-19T02:27:44.930Z,21.50
2023-01-19T02:30:12.842Z,20.80
2023-01-19T02:32:39.795Z,16.30
2023-01-19T02:35:06.627Z,16.60
2023-01-19T02:37:37.792Z,16.10
2023-01-19T02:40:05.656Z,12.40
2023-01-19T02:42:32.253Z,10.90
2023-01-19T02:44:58.847Z,9.00
2023-01-19T02:47:25.606Z,7.00
2023-01-19T02:49:56.723Z,11.40
2023-01-19T02:52:23.841Z,10.80
2023-01-19T02:55:05.969Z,11.20
2023-01-19T02:57:43.823Z,10.30
2023-01-19T03:00:25.858Z,10.30
2023-01-19T03:03:07.944Z,9.00
2023-01-19T03:05:54.531Z,9.90
2023-01-19T03:08:24.178Z,8.90
2023-01-19T03:10:58.037Z,9.40
2023-01-19T03:13:24.578Z,7.90
2023-01-19T03:16:03.354Z,8.80
2023-01-19T03:18:32.410Z,10.30
2023-01-19T03:21:00.627Z,8.50
2023-01-19T03:23:30.470Z,7.50
2023-01-19T03:25:58.631Z,8.30
2023-01-19T03:28:26.891Z,7.30
2023-01-19T03:31:01.998Z,5.10
2023-01-19T03:33:31.928Z,5.70
2023-01-19T03:36:03.812Z,5.20
2023-01-19T03:38:33.080Z,4.70
2023-01-19T03:41:02.232Z,4.30
2023-01-19T03:43:30.097Z,4.50
2023-01-19T03:45:57.227Z,4.80
2023-01-19T03:48:25.557Z,3.30
2023-01-19T03:50:52.830Z,4.10
2023-01-19T03:53:20.836Z,3.80
2023-01-19T03:55:48.723Z,3.30
2023-01-19T03:58:15.500Z,3.80
2023-01-19T04:00:42.308Z,3.50
2023-01-19T04:03:15.793Z,2.90
2023-01-19T04:05:43.064Z,3.00
2023-01-19T04:08:10.326Z,3.50
2023-01-19T04:10:37.041Z,3.60
2023-01-19T04:13:04.690Z,3.20
2023-01-19T04:15:32.006Z,3.00
2023-01-19T04:17:59.555Z,3.10
2023-01-19T04:20:28.305Z,3.30
2023-01-19T04:22:56.297Z,3.20
2023-01-19T04:25:23.112Z,2.70
2023-01-19T04:27:51.932Z,1.70
2023-01-19T04:30:19.030Z,3.00
2023-01-19T04:32:45.880Z,3.60
2023-01-19T04:35:12.603Z,4.30
2023-01-19T04:37:40.225Z,2.80
2023-01-19T04:40:07.657Z,3.30
2023-01-19T04:42:34.406Z,4.40
2023-01-19T04:45:01.165Z,3.60
2023-01-19T04:47:27.901Z,3.50
2023-01-19T04:49:54.666Z,5.50
2023-01-19T04:52:21.443Z,4.10
2023-01-19T04:54:48.772Z,4.70
2023-01-19T04:57:15.581Z,3.60
2023-01-19T04:59:42.622Z,5.20
2023-01-19T05:02:09.504Z,5.10
2023-01-19T05:04:36.250Z,5.50
2023-01-19T05:07:02.991Z,5.20
2023-01-19T05:09:29.712Z,6.00
2023-01-19T05:11:56.484Z,5.90
2023-01-19T05:14:23.250Z,6.00
2023-01-19T05:16:50.045Z,5.40
2023-01-19T05:19:16.744Z,6.30
2023-01-19T05:21:43.520Z,5.00
2023-01-19T05:24:10.411Z,6.50
2023-01-19T05:26:37.882Z,5.70
2023-01-19T05:29:04.761Z,6.10
2023-01-19T05:31:31.600Z,6.70
2023-01-19T05:33:58.489Z,5.90
2023-01-19T05:36:25.367Z,5.20
2023-01-19T05:38:52.186Z,5.20
2023-01-19T05:41:19.180Z,5.30
2023-01-19T05:43:45.975Z,6.20
2023-01-19T05:46:13.066Z,6.00
2023-01-19T05:48:40.342Z,6.70
2023-01-19T05:51:07.528Z,6.90
2023-01-19T05:53:34.259Z,5.60
2023-01-19T05:56:05.232Z,4.10
2023-01-19T05:58:34.679Z,5.50
2023-01-19T06:01:06.083Z,7.40
2023-01-19T06:03:33.710Z,5.10
2023-01-19T06:06:01.078Z,5.60
2023-01-19T06:08:27.959Z,6.30
2023-01-19T06:10:54.747Z,6.00
2023-01-19T06:13:21.603Z,4.30
2023-01-19T06:15:48.758Z,3.70
2023-01-19T06:18:15.578Z,5.10
2023-01-19T06:20:42.426Z,5.70
2023-01-19T06:23:10.876Z,5.00
2023-01-19T06:25:37.668Z,5.20
2023-01-19T06:28:04.486Z,5.50
2023-01-19T06:30:31.271Z,4.40
2023-01-19T06:32:58.471Z,6.00
2023-01-19T06:35:25.564Z,6.40
2023-01-19T06:37:52.854Z,5.40
2023-01-19T06:40:19.637Z,6.00
2023-01-19T06:42:46.369Z,5.30
2023-01-19T06:45:13.154Z,6.70
2023-01-19T06:47:39.897Z,5.20
2023-01-19T06:50:06.733Z,6.10
2023-01-19T06:52:33.613Z,6.70
2023-01-19T06:55:00.325Z,6.90
2023-01-19T06:57:27.129Z,7.70
2023-01-19T06:59:53.848Z,7.90
2023-01-19T07:02:27.755Z,8.00
2023-01-19T07:04:55.901Z,9.60
2023-01-19T07:07:22.709Z,8.30
2023-01-19T07:09:49.492Z,7.50
2023-01-19T07:12:20.695Z,6.60
2023-01-19T07:14:49.849Z,9.20
2023-01-19T07:17:16.696Z,8.00
2023-01-19T07:19:43.464Z,9.10
2023-01-19T07:22:10.213Z,6.60
2023-01-19T07:24:38.502Z,11.60
2023-01-19T07:27:05.758Z,9.60
2023-01-19T07:29:32.929Z,9.50
2023-01-19T07:31:59.692Z,12.80
2023-01-19T07:34:26.415Z,9.70
2023-01-19T07:36:53.292Z,11.20
2023-01-19T07:39:20.168Z,10.40
2023-01-19T07:41:48.171Z,10.00
2023-01-19T07:44:15.163Z,13.10
2023-01-19T07:46:42.349Z,8.00
2023-01-19T07:49:09.479Z,8.90
2023-01-19T07:51:36.408Z,9.40
2023-01-19T07:54:03.200Z,8.00
2023-01-19T07:56:32.833Z,10.20
2023-01-19T07:59:00.470Z,8.80
2023-01-19T08:01:27.352Z,12.90
2023-01-19T08:03:54.539Z,10.10
2023-01-19T08:06:22.754Z,11.30
2023-01-19T08:08:50.008Z,10.10
2023-01-19T08:11:17.529Z,10.00
2023-01-19T08:13:44.318Z,10.40
2023-01-19T08:16:11.186Z,9.90
2023-01-19T08:18:38.104Z,11.60
2023-01-19T08:21:05.056Z,7.80
2023-01-19T08:23:31.865Z,7.30
2023-01-19T08:25:58.628Z,8.40
2023-01-19T08:28:26.219Z,21.60
2023-01-19T08:30:55.997Z,12.30
2023-01-19T08:33:24.051Z,41.80
2023-01-19T08:35:52.531Z,15.50
2023-01-19T08:38:19.742Z,8.10
2023-01-19T08:40:47.017Z,9.20
2023-01-19T08:43:15.405Z,7.60
2023-01-19T08:45:48.586Z,10.40
2023-01-19T08:48:16.269Z,8.50
2023-01-19T08:50:45.410Z,7.20
2023-01-19T08:53:12.156Z,9.50
2023-01-19T08:55:39.317Z,10.60
2023-01-19T08:58:06.729Z,9.30
2023-01-19T09:00:34.663Z,9.50
2023-01-19T09:03:05.168Z,9.40
2023-01-19T09:05:37.582Z,10.60
2023-01-19T09:08:05.513Z,9.30
2023-01-19T09:10:36.200Z,10.90
2023-01-19T09:13:05.286Z,10.00
2023-01-19T09:15:35.979Z,9.80
2023-01-19T09:18:04.891Z,10.90
2023-01-19T09:20:32.555Z,10.30
2023-01-19T09:22:59.345Z,8.80
2023-01-19T09:25:26.101Z,11.10
2023-01-19T09:27:53.255Z,9.60
2023-01-19T09:30:20.111Z,8.00
2023-01-19T09:32:46.967Z,12.70
2023-01-19T09:35:13.786Z,10.70
2023-01-19T09:37:40.608Z,12.80
2023-01-19T09:40:10.201Z,15.20
2023-01-19T09:42:42.729Z,14.50
2023-01-19T09:45:23.183Z,15.00
2023-01-19T09:47:50.920Z,18.80
2023-01-19T09:50:29.127Z,25.90
2023-01-19T09:52:57.540Z,23.40
2023-01-19T09:55:26.608Z,19.40
2023-01-19T09:57:54.063Z,17.90
2023-01-19T10:00:22.940Z,24.40
2023-01-19T10:02:53.452Z,21.90
2023-01-19T10:05:26.122Z,19.20
2023-01-19T10:07:56.066Z,17.80
2023-01-19T10:10:25.395Z,15.50
2023-01-19T10:13:09.251Z,15.00
2023-01-19T10:15:42.526Z,16.00
2023-01-19T10:18:09.260Z,15.10
2023-01-19T10:20:44.993Z,13.80
2023-01-19T10:23:19.174Z,16.90
2023-01-19T10:25:46.815Z,18.50
2023-01-19T10:28:14.455Z,20.30
2023-01-19T10:30:43.133Z,11.50
2023-01-19T10:33:12.739Z,9.90
2023-01-19T10:35:39.456Z,11.30
2023-01-19T10:38:06.382Z,7.80
2023-01-19T10:40:33.180Z,6.40
2023-01-19T10:43:00.397Z,17.90
2023-01-19T10:45:30.372Z,11.70
2023-01-19T10:48:05.082Z,12.10
2023-01-19T10:50:33.909Z,36.20
2023-01-19T10:53:04.868Z,28.80
2023-01-19T10:55:33.911Z,86.20
2023-01-19T10:58:01.404Z,43.80
2023-01-19T11:00:34.458Z,19.20
2023-01-19T11:03:02.062Z,46.20
2023-01-19T11:05:30.471Z,21.80
2023-01-19T11:07:57.412Z,26.10
2023-01-19T11:10:25.738Z,15.10
2023-01-19T11:13:03.564Z,7.70
2023-01-19T11:15:33.016Z,8.80
2023-01-19T11:18:00.567Z,8.20
2023-01-19T11:20:29.355Z,6.20
2023-01-19T11:23:18.699Z,8.00
2023-01-19T11:25:46.577Z,6.90
2023-01-19T11:28:22.532Z,7.80
2023-01-19T11:31:09.593Z,7.50
2023-01-19T11:33:37.650Z,8.20
2023-01-19T11:36:06.400Z,9.70
2023-01-19T11:38:40.350Z,9.60
2023-01-19T11:41:12.615Z,7.90
2023-01-19T11:43:48.639Z,6.20
2023-01-19T11:46:16.696Z,5.80
2023-01-19T11:48:46.843Z,6.50
2023-01-19T11:51:15.527Z,13.20
2023-01-19T11:53:44.410Z,20.90
2023-01-19T11:56:12.065Z,25.00
2023-01-19T11:58:39.930Z,15.60
2023-01-19T12:01:06.801Z,16.90
2023-01-19T12:03:59.832Z,14.10
2023-01-19T12:06:29.959Z,12.00
2023-01-19T12:09:09.706Z,10.50
2023-01-19T12:11:38.965Z,10.50
2023-01-19T12:14:09.423Z,35.20
2023-01-19T12:16:38.806Z,29.00
2023-01-19T12:19:11.063Z,9.90
2023-01-19T12:21:38.200Z,9.40
2023-01-19T12:24:05.009Z,13.70
2023-01-19T12:26:52.016Z,9.90
2023-01-19T12:29:22.814Z,30.40
2023-01-19T12:32:10.091Z,24.00
2023-01-19T12:34:46.937Z,8.00
2023-01-19T12:37:32.642Z,12.10
2023-01-19T12:40:19.678Z,6.30
2023-01-19T12:42:47.392Z,5.70
2023-01-19T12:45:17.066Z,10.70
2023-01-19T12:47:53.789Z,12.50
2023-01-19T12:50:23.555Z,14.40
2023-01-19T12:52:57.490Z,10.10
2023-01-19T12:55:27.211Z,13.60
2023-01-19T12:57:56.876Z,6.40
2023-01-19T13:00:23.565Z,5.20
2023-01-19T13:03:01.012Z,8.30
2023-01-19T13:05:32.618Z,43.90
2023-01-19T13:08:02.971Z,83.10
2023-01-19T13:10:48.845Z,63.00
2023-01-19T13:13:18.341Z,37.50
2023-01-19T13:15:45.230Z,15.00
2023-01-19T13:18:20.374Z,57.00
2023-01-19T13:20:50.663Z,107.80
2023-01-19T13:23:19.848Z,59.10
2023-01-19T13:25:51.803Z,91.40
2023-01-19T13:28:19.847Z,54.50
2023-01-19T13:30:58.322Z,21.90
2023-01-19T13:33:26.937Z,25.80
2023-01-19T13:35:58.983Z,24.70
2023-01-19T13:38:27.478Z,13.50
2023-01-19T13:40:55.686Z,15.40
2023-01-19T13:43:26.837Z,27.80
2023-01-19T13:45:54.042Z,9.50
2023-01-19T13:48:25.175Z,5.60
2023-01-19T13:51:06.179Z,5.50
2023-01-19T13:53:33.505Z,5.80
2023-01-19T13:56:16.387Z,5.10
2023-01-19T13:58:43.212Z,4.90
2023-01-19T14:01:23.479Z,6.30
2023-01-19T14:03:53.629Z,6.10
2023-01-19T14:06:29.417Z,5.90
2023-01-19T14:09:28.828Z,4.50
2023-01-19T14:12:13.056Z,4.90
2023-01-19T14:14:40.183Z,4.30
2023-01-19T14:17:24.715Z,6.10
2023-01-19T14:19:52.759Z,4.40
2023-01-19T14:22:19.598Z,4.70
2023-01-19T14:24:46.590Z,7.00
2023-01-19T14:27:21.095Z,6.60
2023-01-19T14:29:50.736Z,7.20
2023-01-19T14:32:20.701Z,6.00
2023-01-19T14:34:50.411Z,5.60
2023-01-19T14:37:21.748Z,5.80
2023-01-19T14:39:53.923Z,5.10
2023-01-19T14:42:23.799Z,6.80
2023-01-19T14:44:52.081Z,8.10
2023-01-19T14:47:33.862Z,8.40
2023-01-19T14:50:05.123Z,13.60
2023-01-19T14:52:34.474Z,10.60
2023-01-19T14:55:04.107Z,9.90
2023-01-19T14:57:30.904Z,7.70
2023-01-19T14:59:57.652Z,5.40
2023-01-19T15:02:24.450Z,6.00
2023-01-19T15:04:55.415Z,5.80
2023-01-19T15:07:24.386Z,26.10
2023-01-19T15:09:51.800Z,27.10
2023-01-19T15:12:18.811Z,25.90
2023-01-19T15:14:45.875Z,14.60
2023-01-19T15:17:16.228Z,12.60
2023-01-19T15:19:42.982Z,6.60
2023-01-19T15:22:13.809Z,6.20
2023-01-19T15:24:41.104Z,6.10
2023-01-19T15:27:11.737Z,5.50
2023-01-19T15:29:40.646Z,5.90
2023-01-19T15:32:12.262Z,6.20
2023-01-19T15:34:39.036Z,6.10
2023-01-19T15:37:05.938Z,5.90
2023-01-19T15:39:32.723Z,6.80
2023-01-19T15:41:59.849Z,6.80
2023-01-19T15:44:26.786Z,9.40
2023-01-19T15:46:54.758Z,15.80
2023-01-19T15:49:21.694Z,11.60
2023-01-19T15:51:48.469Z,16.10
2023-01-19T15:54:15.721Z,22.00
2023-01-19T15:56:43.201Z,24.10
2023-01-19T15:59:09.988Z,21.30
2023-01-19T16:01:37.222Z,48.20
2023-01-19T16:04:05.134Z,46.30
2023-01-19T16:06:32.467Z,35.10
2023-01-19T16:09:02.096Z,49.70
2023-01-19T16:11:30.239Z,38.30
2023-01-19T16:14:03.919Z,38.00
2023-01-19T16:16:32.003Z,30.60
2023-01-19T16:19:00.302Z,27.30
2023-01-19T16:21:27.576Z,26.20
2023-01-19T16:23:54.413Z,22.30
2023-01-19T16:26:32.712Z,16.40
2023-01-19T16:29:00.801Z,17.70
2023-01-19T16:31:28.256Z,15.80
2023-01-19T16:33:55.713Z,13.30
2023-01-19T16:36:26.049Z,12.90
2023-01-19T16:38:53.495Z,13.00
2023-01-19T16:41:20.918Z,11.60
2023-01-19T16:43:52.271Z,14.10
2023-01-19T16:46:23.716Z,13.40
2023-01-19T16:48:51.136Z,11.00
2023-01-19T16:51:18.038Z,11.20
2023-01-19T16:53:45.422Z,14.00
2023-01-19T16:56:13.743Z,10.40
2023-01-19T16:58:41.865Z,13.50
2023-01-19T17:01:08.834Z,10.30
2023-01-19T17:03:36.181Z,8.50
2023-01-19T17:06:03.638Z,9.10
2023-01-19T17:08:30.565Z,10.80
2023-01-19T17:10:57.411Z,8.70
2023-01-19T17:13:25.673Z,10.50
2023-01-19T17:15:52.721Z,9.40
2023-01-19T17:18:19.861Z,8.50
2023-01-19T17:20:48.207Z,7.90
2023-01-19T17:23:15.711Z,11.70
2023-01-19T17:25:43.495Z,10.10
2023-01-19T17:28:11.045Z,9.00
2023-01-19T17:30:38.429Z,9.30
2023-01-19T17:33:05.667Z,8.90
2023-01-19T17:35:35.162Z,18.60
2023-01-19T17:38:02.516Z,38.80
2023-01-19T17:40:31.183Z,17.00
2023-01-19T17:42:58.871Z,15.80
2023-01-19T17:45:26.590Z,12.60
2023-01-19T17:47:53.852Z,12.40
2023-01-19T17:50:22.792Z,14.10
2023-01-19T17:52:50.445Z,12.00
2023-01-19T17:55:19.200Z,10.80
2023-01-19T17:57:46.864Z,26.70
2023-01-19T18:00:15.418Z,45.50
2023-01-19T18:02:44.101Z,18.90
2023-01-19T18:05:13.273Z,16.60
2023-01-19T18:07:40.754Z,20.00
2023-01-19T18:10:09.218Z,17.50
2023-01-19T18:12:38.576Z,14.10
2023-01-19T18:15:09.968Z,17.50
2023-01-19T18:17:39.425Z,16.80
2023-01-19T18:20:08.070Z,14.90
2023-01-19T18:22:35.771Z,16.40
2023-01-19T18:25:03.672Z,15.30
2023-01-19T18:27:32.348Z,12.80
2023-01-19T18:30:00.397Z,13.70
2023-01-19T18:32:28.672Z,14.60
2023-01-19T18:34:58.585Z,10.10
2023-01-19T18:37:26.446Z,11.80
2023-01-19T18:39:56.802Z,10.10
2023-01-19T18:42:24.571Z,9.60
2023-01-19T18:44:52.622Z,10.40
2023-01-19T18:47:20.534Z,12.20
2023-01-19T18:49:47.723Z,13.90
2023-01-19T18:52:15.708Z,14.20
2023-01-19T18:54:43.359Z,14.30
2023-01-19T18:57:11.018Z,14.40
2023-01-19T18:59:39.064Z,14.80
2023-01-19T19:02:09.232Z,16.20
2023-01-19T19:04:36.993Z,21.70
2023-01-19T19:07:14.885Z,30.90
2023-01-19T19:09:43.182Z,21.60
2023-01-19T19:12:10.682Z,23.70
2023-01-19T19:14:38.375Z,23.10
2023-01-19T19:17:06.877Z,22.20
2023-01-19T19:19:36.360Z,39.50
2023-01-19T19:22:05.798Z,69.50
2023-01-19T19:24:33.942Z,50.60
2023-01-19T19:27:02.823Z,42.10
2023-01-19T19:29:30.826Z,29.50
2023-01-19T19:31:58.769Z,22.30
2023-01-19T19:34:28.784Z,18.70
2023-01-19T19:36:56.568Z,37.80
2023-01-19T19:39:24.409Z,51.80
2023-01-19T19:41:53.305Z,69.90
2023-01-19T19:44:20.959Z,81.30
2023-01-19T19:46:51.972Z,94.40
2023-01-19T19:49:24.536Z,101.30
2023-01-19T19:51:52.352Z,102.40
2023-01-19T19:54:20.396Z,95.20
2023-01-19T19:56:51.876Z,86.60
2023-01-19T19:59:29.057Z,81.50
2023-01-19T20:01:56.854Z,90.80
2023-01-19T20:04:29.274Z,92.30
2023-01-19T20:06:59.983Z,155.10
2023-01-19T20:09:27.397Z,218.30
2023-01-19T20:11:56.094Z,112.30
2023-01-19T20:14:24.857Z,75.90
2023-01-19T20:16:52.942Z,76.80
2023-01-19T20:19:24.047Z,97.40
2023-01-19T20:21:51.813Z,86.30
2023-01-19T20:24:20.420Z,96.80
2023-01-19T20:26:49.311Z,94.20
2023-01-19T20:29:17.136Z,60.60
2023-01-19T20:31:49.057Z,49.50
2023-01-19T20:34:18.075Z,47.80
2023-01-19T20:36:51.190Z,52.40
2023-01-19T20:39:19.423Z,55.60
2023-01-19T20:41:51.332Z,58.00
2023-01-19T20:44:20.496Z,49.70
2023-01-19T20:46:47.668Z,48.60
2023-01-19T20:49:16.577Z,44.80
2023-01-19T20:51:46.608Z,45.50
2023-01-19T20:54:15.596Z,50.80
2023-01-19T20:56:44.019Z,52.10
2023-01-19T20:59:13.980Z,50.50
2023-01-19T21:01:41.875Z,50.40
2023-01-19T21:04:09.918Z,49.80
2023-01-19T21:06:37.837Z,42.50
2023-01-19T21:09:05.223Z,45.00
2023-01-19T21:11:32.818Z,41.40
2023-01-19T21:14:01.755Z,30.10
2023-01-19T21:16:32.137Z,35.20
2023-01-19T21:19:00.238Z,39.80
2023-01-19T21:21:31.145Z,36.70
2023-01-19T21:24:02.535Z,37.60
2023-01-19T21:26:33.923Z,30.60
2023-01-19T21:29:02.202Z,25.90
2023-01-19T21:31:29.563Z,19.70
2023-01-19T21:33:57.447Z,25.80
2023-01-19T21:36:24.878Z,33.20
2023-01-19T21:38:52.917Z,29.80
2023-01-19T21:41:20.303Z,44.80
2023-01-19T21:43:47.271Z,29.00
2023-01-19T21:46:18.234Z,40.90
2023-01-19T21:48:45.930Z,39.20
2023-01-19T21:51:13.329Z,40.40
2023-01-19T21:53:40.402Z,34.20
2023-01-19T21:56:08.175Z,40.70
2023-01-19T21:58:34.988Z,40.50
2023-01-19T22:01:02.678Z,34.70
2023-01-19T22:03:29.603Z,36.60
2023-01-19T22:05:56.607Z,36.20
2023-01-19T22:08:23.963Z,39.40
2023-01-19T22:10:50.869Z,37.80
2023-01-19T22:13:18.024Z,40.60
2023-01-19T22:15:44.782Z,38.50
2023-01-19T22:18:11.580Z,33.30
2023-01-19T22:20:38.531Z,38.70
2023-01-19T22:23:05.265Z,39.70
2023-01-19T22:25:32.827Z,43.60
2023-01-19T22:27:59.572Z,52.20
2023-01-19T22:30:26.539Z,52.40
2023-01-19T22:32:53.586Z,53.50
2023-01-19T22:35:21.527Z,52.40
2023-01-19T22:37:48.240Z,38.10
2023-01-19T22:40:15.170Z,42.30
2023-01-19T22:42:45.037Z,25.90
2023-01-19T22:45:12.042Z,32.70
2023-01-19T22:47:39.063Z,20.70
2023-01-19T22:50:06.350Z,34.00
2023-01-19T22:52:33.176Z,33.80
2023-01-19T22:55:00.382Z,36.00
2023-01-19T22:57:27.161Z,36.60
2023-01-19T22:59:53.917Z,30.80
2023-01-19T23:02:21.054Z,33.10
2023-01-19T23:04:47.936Z,22.60
2023-01-19T23:07:14.630Z,23.20
2023-01-19T23:09:41.484Z,25.90
2023-01-19T23:12:08.264Z,22.50
2023-01-19T23:14:36.480Z,28.80
2023-01-19T23:17:03.326Z,26.00
2023-01-19T23:19:30.047Z,28.70
2023-01-19T23:21:56.758Z,33.70
2023-01-19T23:24:23.656Z,27.50
2023-01-19T23:26:50.730Z,23.90
2023-01-19T23:29:18.149Z,29.30
2023-01-19T23:31:46.287Z,24.50
2023-01-19T23:34:13.493Z,19.00
2023-01-19T23:36:41.506Z,22.80
2023-01-19T23:39:15.943Z,24.30
2023-01-19T23:41:42.789Z,22.50
2023-01-19T23:44:09.545Z,25.30
2023-01-19T23:46:36.402Z,15.60
2023-01-19T23:49:03.210Z,15.10
2023-01-19T23:51:30.900Z,26.60
2023-01-19T23:53:58.582Z,25.10
2023-01-19T23:56:25.404Z,21.20
2023-01-19T23:58:56.474Z,24.80
